sensor_id;sensor_type;location;lat;lon;timestamp;temperature;humidity
72126;SHT31;59999;51.676;22.650;2023-10-08T00:01:09;9.28;89.89
72126;SHT31;59999;51.676;22.650;2023-10-08T00:03:38;9.28;89.79
72126;SHT31;59999;51.676;22.650;2023-10-08T00:06:06;9.30;89.74
72126;SHT31;59999;51.676;22.650;2023-10-08T00:08:33;9.30;89.68
72126;SHT31;59999;51.676;22.650;2023-10-08T00:10:59;9.30;89.69
72126;SHT31;59999;51.676;22.650;2023-10-08T00:13:31;9.31;89.54
72126;SHT31;59999;51.676;22.650;2023-10-08T00:15:57;9.32;89.59
72126;SHT31;59999;51.676;22.650;2023-10-08T00:18:23;9.32;89.68
72126;SHT31;59999;51.676;22.650;2023-10-08T00:20:50;9.32;89.65
72126;SHT31;59999;51.676;22.650;2023-10-08T00:23:41;9.31;89.78
72126;SHT31;59999;51.676;22.650;2023-10-08T00:26:08;9.30;89.80
72126;SHT31;59999;51.676;22.650;2023-10-08T00:28:34;9.31;89.69
72126;SHT31;59999;51.676;22.650;2023-10-08T00:31:03;9.32;89.88
72126;SHT31;59999;51.676;22.650;2023-10-08T00:33:38;9.34;89.83
72126;SHT31;59999;51.676;22.650;2023-10-08T00:36:05;9.34;89.80
72126;SHT31;59999;51.676;22.650;2023-10-08T00:38:43;9.35;89.84
72126;SHT31;59999;51.676;22.650;2023-10-08T00:41:13;9.31;89.62
72126;SHT31;59999;51.676;22.650;2023-10-08T00:43:42;9.32;89.60
72126;SHT31;59999;51.676;22.650;2023-10-08T00:46:10;9.34;89.65
72126;SHT31;59999;51.676;22.650;2023-10-08T00:48:58;9.30;89.52
72126;SHT31;59999;51.676;22.650;2023-10-08T00:51:25;9.30;89.55
72126;SHT31;59999;51.676;22.650;2023-10-08T00:54:03;9.28;89.63
72126;SHT31;59999;51.676;22.650;2023-10-08T00:56:36;9.31;89.44
72126;SHT31;59999;51.676;22.650;2023-10-08T00:59:11;9.30;89.53
72126;SHT31;59999;51.676;22.650;2023-10-08T01:01:39;9.31;89.45
72126;SHT31;59999;51.676;22.650;2023-10-08T01:04:05;9.34;89.29
72126;SHT31;59999;51.676;22.650;2023-10-08T01:06:38;9.32;89.27
72126;SHT31;59999;51.676;22.650;2023-10-08T01:09:05;9.34;89.13
72126;SHT31;59999;51.676;22.650;2023-10-08T01:11:44;9.32;89.27
72126;SHT31;59999;51.676;22.650;2023-10-08T01:14:19;9.31;89.24
72126;SHT31;59999;51.676;22.650;2023-10-08T01:16:47;9.32;89.30
72126;SHT31;59999;51.676;22.650;2023-10-08T01:19:21;9.30;89.43
72126;SHT31;59999;51.676;22.650;2023-10-08T01:21:48;9.30;89.40
72126;SHT31;59999;51.676;22.650;2023-10-08T01:24:14;9.30;89.41
72126;SHT31;59999;51.676;22.650;2023-10-08T01:26:43;9.28;89.52
72126;SHT31;59999;51.676;22.650;2023-10-08T01:29:13;9.27;89.61
72126;SHT31;59999;51.676;22.650;2023-10-08T01:31:46;9.27;89.57
72126;SHT31;59999;51.676;22.650;2023-10-08T01:34:12;9.26;89.63
72126;SHT31;59999;51.676;22.650;2023-10-08T01:36:42;9.23;89.71
72126;SHT31;59999;51.676;22.650;2023-10-08T01:39:11;9.21;89.75
72126;SHT31;59999;51.676;22.650;2023-10-08T01:41:44;9.24;89.69
72126;SHT31;59999;51.676;22.650;2023-10-08T01:44:09;9.24;89.76
72126;SHT31;59999;51.676;22.650;2023-10-08T01:46:35;9.23;89.77
72126;SHT31;59999;51.676;22.650;2023-10-08T01:49:01;9.21;89.80
72126;SHT31;59999;51.676;22.650;2023-10-08T01:51:35;9.24;89.82
72126;SHT31;59999;51.676;22.650;2023-10-08T01:54:05;9.20;89.96
72126;SHT31;59999;51.676;22.650;2023-10-08T01:56:41;9.17;90.01
72126;SHT31;59999;51.676;22.650;2023-10-08T01:59:11;9.17;90.12
72126;SHT31;59999;51.676;22.650;2023-10-08T02:01:43;9.16;90.19
72126;SHT31;59999;51.676;22.650;2023-10-08T02:04:10;9.17;90.20
72126;SHT31;59999;51.676;22.650;2023-10-08T02:06:41;9.14;90.20
72126;SHT31;59999;51.676;22.650;2023-10-08T02:09:07;9.16;90.27
72126;SHT31;59999;51.676;22.650;2023-10-08T02:11:48;9.13;90.28
72126;SHT31;59999;51.676;22.650;2023-10-08T02:14:22;9.11;90.25
72126;SHT31;59999;51.676;22.650;2023-10-08T02:16:51;9.13;90.31
72126;SHT31;59999;51.676;22.650;2023-10-08T02:19:24;9.10;90.33
72126;SHT31;59999;51.676;22.650;2023-10-08T02:21:54;9.11;90.38
72126;SHT31;59999;51.676;22.650;2023-10-08T02:24:20;9.10;90.39
72126;SHT31;59999;51.676;22.650;2023-10-08T02:26:53;9.13;90.31
72126;SHT31;59999;51.676;22.650;2023-10-08T02:29:26;9.11;90.32
72126;SHT31;59999;51.676;22.650;2023-10-08T02:31:52;9.10;90.38
72126;SHT31;59999;51.676;22.650;2023-10-08T02:34:20;9.10;90.50
72126;SHT31;59999;51.676;22.650;2023-10-08T02:36:46;9.13;90.49
72126;SHT31;59999;51.676;22.650;2023-10-08T02:39:15;9.13;90.36
72126;SHT31;59999;51.676;22.650;2023-10-08T02:41:49;9.14;90.40
72126;SHT31;59999;51.676;22.650;2023-10-08T02:44:16;9.16;90.44
72126;SHT31;59999;51.676;22.650;2023-10-08T02:46:44;9.11;90.50
72126;SHT31;59999;51.676;22.650;2023-10-08T02:49:20;9.13;90.57
72126;SHT31;59999;51.676;22.650;2023-10-08T02:51:54;9.11;90.64
72126;SHT31;59999;51.676;22.650;2023-10-08T02:54:21;9.11;90.69
72126;SHT31;59999;51.676;22.650;2023-10-08T02:56:52;9.13;90.68
72126;SHT31;59999;51.676;22.650;2023-10-08T02:59:32;9.10;90.65
72126;SHT31;59999;51.676;22.650;2023-10-08T03:02:12;9.13;90.75
72126;SHT31;59999;51.676;22.650;2023-10-08T03:04:45;9.09;90.81
72126;SHT31;59999;51.676;22.650;2023-10-08T03:07:15;9.09;90.94
72126;SHT31;59999;51.676;22.650;2023-10-08T03:09:49;9.10;91.00
72126;SHT31;59999;51.676;22.650;2023-10-08T03:12:17;9.09;91.02
72126;SHT31;59999;51.676;22.650;2023-10-08T03:14:43;9.11;91.10
72126;SHT31;59999;51.676;22.650;2023-10-08T03:17:29;9.10;91.12
72126;SHT31;59999;51.676;22.650;2023-10-08T03:19:55;9.09;91.12
72126;SHT31;59999;51.676;22.650;2023-10-08T03:22:44;9.07;91.20
72126;SHT31;59999;51.676;22.650;2023-10-08T03:25:12;9.06;91.24
72126;SHT31;59999;51.676;22.650;2023-10-08T03:27:44;9.07;91.29
72126;SHT31;59999;51.676;22.650;2023-10-08T03:30:10;9.07;91.26
72126;SHT31;59999;51.676;22.650;2023-10-08T03:32:42;9.07;91.31
72126;SHT31;59999;51.676;22.650;2023-10-08T03:35:10;9.09;91.26
72126;SHT31;59999;51.676;22.650;2023-10-08T03:37:38;9.13;91.22
72126;SHT31;59999;51.676;22.650;2023-10-08T03:40:07;9.10;91.17
72126;SHT31;59999;51.676;22.650;2023-10-08T03:43:08;9.11;91.18
72126;SHT31;59999;51.676;22.650;2023-10-08T03:45:45;9.10;91.08
72126;SHT31;59999;51.676;22.650;2023-10-08T03:48:20;9.14;91.04
72126;SHT31;59999;51.676;22.650;2023-10-08T03:50:48;9.16;90.87
72126;SHT31;59999;51.676;22.650;2023-10-08T03:53:22;9.16;90.92
72126;SHT31;59999;51.676;22.650;2023-10-08T03:55:48;9.16;90.96
72126;SHT31;59999;51.676;22.650;2023-10-08T03:58:17;9.16;90.95
72126;SHT31;59999;51.676;22.650;2023-10-08T04:00:55;9.16;90.94
72126;SHT31;59999;51.676;22.650;2023-10-08T04:03:43;9.16;90.95
72126;SHT31;59999;51.676;22.650;2023-10-08T04:06:21;9.14;90.92
72126;SHT31;59999;51.676;22.650;2023-10-08T04:09:16;9.14;90.90
72126;SHT31;59999;51.676;22.650;2023-10-08T04:11:51;9.14;90.87
72126;SHT31;59999;51.676;22.650;2023-10-08T04:14:22;9.10;90.91
72126;SHT31;59999;51.676;22.650;2023-10-08T04:16:49;9.16;90.81
72126;SHT31;59999;51.676;22.650;2023-10-08T04:19:22;9.13;90.83
72126;SHT31;59999;51.676;22.650;2023-10-08T04:21:53;9.10;90.77
72126;SHT31;59999;51.676;22.650;2023-10-08T04:24:26;9.11;90.68
72126;SHT31;59999;51.676;22.650;2023-10-08T04:26:57;9.10;90.76
72126;SHT31;59999;51.676;22.650;2023-10-08T04:29:24;9.09;90.72
72126;SHT31;59999;51.676;22.650;2023-10-08T04:31:50;9.10;90.70
72126;SHT31;59999;51.676;22.650;2023-10-08T04:34:29;9.07;90.70
72126;SHT31;59999;51.676;22.650;2023-10-08T04:36:55;9.04;90.69
72126;SHT31;59999;51.676;22.650;2023-10-08T04:39:27;9.04;90.65
72126;SHT31;59999;51.676;22.650;2023-10-08T04:42:00;9.07;90.70
72126;SHT31;59999;51.676;22.650;2023-10-08T04:44:33;9.07;90.56
72126;SHT31;59999;51.676;22.650;2023-10-08T04:46:59;9.04;90.46
72126;SHT31;59999;51.676;22.650;2023-10-08T04:49:31;9.00;90.40
72126;SHT31;59999;51.676;22.650;2023-10-08T04:52:00;8.99;90.31
72126;SHT31;59999;51.676;22.650;2023-10-08T04:54:27;9.02;90.48
72126;SHT31;59999;51.676;22.650;2023-10-08T04:56:59;8.94;90.10
72126;SHT31;59999;51.676;22.650;2023-10-08T04:59:29;8.92;90.10
72126;SHT31;59999;51.676;22.650;2023-10-08T05:02:00;8.87;90.16
72126;SHT31;59999;51.676;22.650;2023-10-08T05:04:54;8.82;90.13
72126;SHT31;59999;51.676;22.650;2023-10-08T05:07:35;8.79;90.25
72126;SHT31;59999;51.676;22.650;2023-10-08T05:10:23;8.80;90.28
72126;SHT31;59999;51.676;22.650;2023-10-08T05:12:49;8.84;90.06
72126;SHT31;59999;51.676;22.650;2023-10-08T05:15:27;8.89;89.94
72126;SHT31;59999;51.676;22.650;2023-10-08T05:18:01;8.94;89.57
72126;SHT31;59999;51.676;22.650;2023-10-08T05:20:50;9.00;89.44
72126;SHT31;59999;51.676;22.650;2023-10-08T05:23:17;9.03;88.72
72126;SHT31;59999;51.676;22.650;2023-10-08T05:25:58;9.09;88.44
72126;SHT31;59999;51.676;22.650;2023-10-08T05:28:33;9.11;88.20
72126;SHT31;59999;51.676;22.650;2023-10-08T05:31:08;9.10;88.24
72126;SHT31;59999;51.676;22.650;2023-10-08T05:33:57;9.13;87.46
72126;SHT31;59999;51.676;22.650;2023-10-08T05:36:42;9.07;86.60
72126;SHT31;59999;51.676;22.650;2023-10-08T05:39:26;9.04;85.00
72126;SHT31;59999;51.676;22.650;2023-10-08T05:41:56;9.00;84.84
72126;SHT31;59999;51.676;22.650;2023-10-08T05:44:43;9.02;85.53
72126;SHT31;59999;51.676;22.650;2023-10-08T05:47:13;9.04;84.84
72126;SHT31;59999;51.676;22.650;2023-10-08T05:50:04;9.07;83.89
72126;SHT31;59999;51.676;22.650;2023-10-08T05:52:46;9.13;84.08
72126;SHT31;59999;51.676;22.650;2023-10-08T05:55:30;9.23;83.31
72126;SHT31;59999;51.676;22.650;2023-10-08T05:58:04;9.28;82.95
72126;SHT31;59999;51.676;22.650;2023-10-08T06:00:43;9.34;82.18
72126;SHT31;59999;51.676;22.650;2023-10-08T06:03:26;9.42;82.46
72126;SHT31;59999;51.676;22.650;2023-10-08T06:06:06;9.44;80.66
72126;SHT31;59999;51.676;22.650;2023-10-08T06:08:39;9.50;80.78
72126;SHT31;59999;51.676;22.650;2023-10-08T06:11:23;9.54;79.71
72126;SHT31;59999;51.676;22.650;2023-10-08T06:14:18;9.68;79.00
72126;SHT31;59999;51.676;22.650;2023-10-08T06:17:18;9.75;78.22
72126;SHT31;59999;51.676;22.650;2023-10-08T06:20:11;9.77;77.65
72126;SHT31;59999;51.676;22.650;2023-10-08T06:22:42;9.71;77.88
72126;SHT31;59999;51.676;22.650;2023-10-08T06:25:09;9.69;78.04
72126;SHT31;59999;51.676;22.650;2023-10-08T06:27:50;9.72;77.85
72126;SHT31;59999;51.676;22.650;2023-10-08T06:30:22;9.78;77.51
72126;SHT31;59999;51.676;22.650;2023-10-08T06:32:50;9.81;77.01
72126;SHT31;59999;51.676;22.650;2023-10-08T06:35:16;9.78;76.69
72126;SHT31;59999;51.676;22.650;2023-10-08T06:37:45;9.81;75.97
72126;SHT31;59999;51.676;22.650;2023-10-08T06:40:16;9.85;76.15
72126;SHT31;59999;51.676;22.650;2023-10-08T06:43:02;9.89;75.18
72126;SHT31;59999;51.676;22.650;2023-10-08T06:45:45;9.95;73.08
72126;SHT31;59999;51.676;22.650;2023-10-08T06:48:14;9.99;72.37
72126;SHT31;59999;51.676;22.650;2023-10-08T06:50:47;10.09;73.45
72126;SHT31;59999;51.676;22.650;2023-10-08T06:53:13;10.10;71.67
72126;SHT31;59999;51.676;22.650;2023-10-08T06:55:41;10.12;71.43
72126;SHT31;59999;51.676;22.650;2023-10-08T06:58:07;10.20;72.52
72126;SHT31;59999;51.676;22.650;2023-10-08T07:00:40;10.27;71.18
72126;SHT31;59999;51.676;22.650;2023-10-08T07:03:13;10.36;69.76
72126;SHT31;59999;51.676;22.650;2023-10-08T07:05:46;10.37;68.19
72126;SHT31;59999;51.676;22.650;2023-10-08T07:08:21;10.30;67.58
72126;SHT31;59999;51.676;22.650;2023-10-08T07:10:53;10.27;66.85
72126;SHT31;59999;51.676;22.650;2023-10-08T07:13:19;10.33;67.64
72126;SHT31;59999;51.676;22.650;2023-10-08T07:15:53;10.43;67.05
72126;SHT31;59999;51.676;22.650;2023-10-08T07:18:20;10.33;65.71
72126;SHT31;59999;51.676;22.650;2023-10-08T07:20:53;10.33;65.28
72126;SHT31;59999;51.676;22.650;2023-10-08T07:23:23;10.40;65.76
72126;SHT31;59999;51.676;22.650;2023-10-08T07:26:00;10.33;66.55
72126;SHT31;59999;51.676;22.650;2023-10-08T07:28:44;10.21;66.00
72126;SHT31;59999;51.676;22.650;2023-10-08T07:31:15;10.16;65.90
72126;SHT31;59999;51.676;22.650;2023-10-08T07:33:47;10.26;65.24
72126;SHT31;59999;51.676;22.650;2023-10-08T07:36:13;10.34;63.45
72126;SHT31;59999;51.676;22.650;2023-10-08T07:38:44;10.34;61.88
72126;SHT31;59999;51.676;22.650;2023-10-08T07:41:10;10.21;60.88
72126;SHT31;59999;51.676;22.650;2023-10-08T07:43:43;10.23;60.36
72126;SHT31;59999;51.676;22.650;2023-10-08T07:46:12;10.37;60.18
72126;SHT31;59999;51.676;22.650;2023-10-08T07:48:40;10.53;57.96
72126;SHT31;59999;51.676;22.650;2023-10-08T07:51:08;10.77;58.56
72126;SHT31;59999;51.676;22.650;2023-10-08T07:53:34;10.84;57.33
72126;SHT31;59999;51.676;22.650;2023-10-08T07:56:06;10.89;59.24
72126;SHT31;59999;51.676;22.650;2023-10-08T07:58:36;10.91;57.24
72126;SHT31;59999;51.676;22.650;2023-10-08T08:01:05;10.95;58.57
72126;SHT31;59999;51.676;22.650;2023-10-08T08:03:35;11.14;58.94
72126;SHT31;59999;51.676;22.650;2023-10-08T08:06:04;11.09;57.85
72126;SHT31;59999;51.676;22.650;2023-10-08T08:08:37;10.77;55.89
72126;SHT31;59999;51.676;22.650;2023-10-08T08:11:06;10.39;56.23
72126;SHT31;59999;51.676;22.650;2023-10-08T08:13:41;10.26;56.91
72126;SHT31;59999;51.676;22.650;2023-10-08T08:16:14;10.27;56.02
72126;SHT31;59999;51.676;22.650;2023-10-08T08:18:47;10.46;57.61
72126;SHT31;59999;51.676;22.650;2023-10-08T08:21:15;10.56;55.95
72126;SHT31;59999;51.676;22.650;2023-10-08T08:23:44;10.69;55.48
72126;SHT31;59999;51.676;22.650;2023-10-08T08:26:21;10.68;55.43
72126;SHT31;59999;51.676;22.650;2023-10-08T08:28:55;10.58;56.20
72126;SHT31;59999;51.676;22.650;2023-10-08T08:31:26;10.46;56.48
72126;SHT31;59999;51.676;22.650;2023-10-08T08:33:52;10.37;56.38
72126;SHT31;59999;51.676;22.650;2023-10-08T08:36:20;10.23;54.99
72126;SHT31;59999;51.676;22.650;2023-10-08T08:38:46;10.32;56.67
72126;SHT31;59999;51.676;22.650;2023-10-08T08:41:13;10.44;58.27
72126;SHT31;59999;51.676;22.650;2023-10-08T08:43:48;10.58;55.18
72126;SHT31;59999;51.676;22.650;2023-10-08T08:46:15;10.57;54.71
72126;SHT31;59999;51.676;22.650;2023-10-08T08:48:42;10.56;56.43
72126;SHT31;59999;51.676;22.650;2023-10-08T08:51:10;10.40;53.74
72126;SHT31;59999;51.676;22.650;2023-10-08T08:53:36;10.40;56.00
72126;SHT31;59999;51.676;22.650;2023-10-08T08:56:06;10.50;54.39
72126;SHT31;59999;51.676;22.650;2023-10-08T08:58:33;10.61;53.99
72126;SHT31;59999;51.676;22.650;2023-10-08T09:01:02;10.78;53.31
72126;SHT31;59999;51.676;22.650;2023-10-08T09:03:29;10.85;52.65
72126;SHT31;59999;51.676;22.650;2023-10-08T09:05:58;10.91;52.39
72126;SHT31;59999;51.676;22.650;2023-10-08T09:08:35;11.04;53.65
72126;SHT31;59999;51.676;22.650;2023-10-08T09:11:02;11.09;53.50
72126;SHT31;59999;51.676;22.650;2023-10-08T09:13:31;11.06;54.12
72126;SHT31;59999;51.676;22.650;2023-10-08T09:16:03;11.14;52.31
72126;SHT31;59999;51.676;22.650;2023-10-08T09:18:32;11.09;51.92
72126;SHT31;59999;51.676;22.650;2023-10-08T09:21:10;11.30;53.74
72126;SHT31;59999;51.676;22.650;2023-10-08T09:23:43;11.29;50.90
72126;SHT31;59999;51.676;22.650;2023-10-08T09:26:10;11.23;52.06
72126;SHT31;59999;51.676;22.650;2023-10-08T09:28:37;11.09;49.48
72126;SHT31;59999;51.676;22.650;2023-10-08T09:31:05;11.06;49.61
72126;SHT31;59999;51.676;22.650;2023-10-08T09:33:32;10.96;51.27
72126;SHT31;59999;51.676;22.650;2023-10-08T09:36:01;10.92;51.67
72126;SHT31;59999;51.676;22.650;2023-10-08T09:38:36;10.98;51.51
72126;SHT31;59999;51.676;22.650;2023-10-08T09:41:03;11.22;52.49
72126;SHT31;59999;51.676;22.650;2023-10-08T09:43:29;11.40;52.66
72126;SHT31;59999;51.676;22.650;2023-10-08T09:46:23;11.53;49.74
72126;SHT31;59999;51.676;22.650;2023-10-08T09:48:59;11.57;49.39
72126;SHT31;59999;51.676;22.650;2023-10-08T09:51:28;11.66;50.88
72126;SHT31;59999;51.676;22.650;2023-10-08T09:54:05;11.67;51.55
72126;SHT31;59999;51.676;22.650;2023-10-08T09:56:36;11.39;49.53
72126;SHT31;59999;51.676;22.650;2023-10-08T09:59:02;11.11;47.77
72126;SHT31;59999;51.676;22.650;2023-10-08T10:01:29;11.08;50.27
72126;SHT31;59999;51.676;22.650;2023-10-08T10:03:57;11.27;51.56
72126;SHT31;59999;51.676;22.650;2023-10-08T10:06:26;11.43;49.44
72126;SHT31;59999;51.676;22.650;2023-10-08T10:08:55;11.64;50.43
72126;SHT31;59999;51.676;22.650;2023-10-08T10:11:26;11.46;49.11
72126;SHT31;59999;51.676;22.650;2023-10-08T10:13:58;11.56;49.72
72126;SHT31;59999;51.676;22.650;2023-10-08T10:16:27;11.67;51.07
72126;SHT31;59999;51.676;22.650;2023-10-08T10:18:57;11.73;49.08
72126;SHT31;59999;51.676;22.650;2023-10-08T10:21:33;11.75;50.77
72126;SHT31;59999;51.676;22.650;2023-10-08T10:23:59;11.77;46.67
72126;SHT31;59999;51.676;22.650;2023-10-08T10:26:35;11.67;46.73
72126;SHT31;59999;51.676;22.650;2023-10-08T10:31:46;11.81;48.35
72126;SHT31;59999;51.676;22.650;2023-10-08T10:34:16;11.75;45.71
72126;SHT31;59999;51.676;22.650;2023-10-08T10:36:44;11.69;46.44
72126;SHT31;59999;51.676;22.650;2023-10-08T10:39:18;11.69;46.56
72126;SHT31;59999;51.676;22.650;2023-10-08T10:41:56;11.87;47.24
72126;SHT31;59999;51.676;22.650;2023-10-08T10:44:30;11.97;45.88
72126;SHT31;59999;51.676;22.650;2023-10-08T10:46:58;11.98;45.03
72126;SHT31;59999;51.676;22.650;2023-10-08T10:49:46;11.81;45.98
72126;SHT31;59999;51.676;22.650;2023-10-08T10:52:30;11.47;45.31
72126;SHT31;59999;51.676;22.650;2023-10-08T10:55:18;11.35;45.43
72126;SHT31;59999;51.676;22.650;2023-10-08T10:57:54;11.20;45.01
72126;SHT31;59999;51.676;22.650;2023-10-08T11:00:30;11.43;47.32
72126;SHT31;59999;51.676;22.650;2023-10-08T11:03:01;11.63;47.10
72126;SHT31;59999;51.676;22.650;2023-10-08T11:05:37;11.83;44.14
72126;SHT31;59999;51.676;22.650;2023-10-08T11:08:05;11.84;44.82
72126;SHT31;59999;51.676;22.650;2023-10-08T11:10:37;11.80;45.55
72126;SHT31;59999;51.676;22.650;2023-10-08T11:13:05;11.74;46.73
72126;SHT31;59999;51.676;22.650;2023-10-08T11:15:40;11.78;45.29
72126;SHT31;59999;51.676;22.650;2023-10-08T11:18:10;11.66;43.64
72126;SHT31;59999;51.676;22.650;2023-10-08T11:20:36;11.67;45.29
72126;SHT31;59999;51.676;22.650;2023-10-08T11:23:06;11.73;42.16
72126;SHT31;59999;51.676;22.650;2023-10-08T11:25:56;11.84;41.30
72126;SHT31;59999;51.676;22.650;2023-10-08T11:31:19;11.80;44.07
72126;SHT31;59999;51.676;22.650;2023-10-08T11:33:46;11.85;43.40
72126;SHT31;59999;51.676;22.650;2023-10-08T11:36:21;11.98;43.68
72126;SHT31;59999;51.676;22.650;2023-10-08T11:39:08;11.99;42.08
72126;SHT31;59999;51.676;22.650;2023-10-08T11:41:35;12.01;42.33
72126;SHT31;59999;51.676;22.650;2023-10-08T11:44:15;12.17;44.25
72126;SHT31;59999;51.676;22.650;2023-10-08T11:46:45;12.29;40.39
72126;SHT31;59999;51.676;22.650;2023-10-08T11:49:11;12.11;39.48
72126;SHT31;59999;51.676;22.650;2023-10-08T11:51:44;11.91;39.64
72126;SHT31;59999;51.676;22.650;2023-10-08T11:54:11;11.83;41.97
72126;SHT31;59999;51.676;22.650;2023-10-08T11:56:38;11.59;40.20
72126;SHT31;59999;51.676;22.650;2023-10-08T11:59:04;11.70;42.21
72126;SHT31;59999;51.676;22.650;2023-10-08T12:01:38;11.71;41.04
72126;SHT31;59999;51.676;22.650;2023-10-08T12:04:08;11.73;42.16
72126;SHT31;59999;51.676;22.650;2023-10-08T12:06:43;11.59;41.57
72126;SHT31;59999;51.676;22.650;2023-10-08T12:09:13;11.67;41.99
72126;SHT31;59999;51.676;22.650;2023-10-08T12:11:39;11.69;42.90
72126;SHT31;59999;51.676;22.650;2023-10-08T12:14:06;11.74;43.50
72126;SHT31;59999;51.676;22.650;2023-10-08T12:16:31;11.94;42.53
72126;SHT31;59999;51.676;22.650;2023-10-08T12:19:01;12.05;39.62
72126;SHT31;59999;51.676;22.650;2023-10-08T12:21:28;12.05;41.07
72126;SHT31;59999;51.676;22.650;2023-10-08T12:23:58;12.02;40.52
72126;SHT31;59999;51.676;22.650;2023-10-08T12:26:24;12.02;42.12
72126;SHT31;59999;51.676;22.650;2023-10-08T12:28:50;12.04;42.33
72126;SHT31;59999;51.676;22.650;2023-10-08T12:31:16;11.97;42.29
72126;SHT31;59999;51.676;22.650;2023-10-08T12:33:47;11.91;42.60
72126;SHT31;59999;51.676;22.650;2023-10-08T12:36:12;11.90;43.17
72126;SHT31;59999;51.676;22.650;2023-10-08T12:38:40;12.10;42.84
72126;SHT31;59999;51.676;22.650;2023-10-08T12:41:07;12.20;43.21
72126;SHT31;59999;51.676;22.650;2023-10-08T12:43:40;12.21;43.08
72126;SHT31;59999;51.676;22.650;2023-10-08T12:46:18;12.05;43.12
72126;SHT31;59999;51.676;22.650;2023-10-08T12:48:53;11.90;42.38
72126;SHT31;59999;51.676;22.650;2023-10-08T12:51:21;11.69;42.28
72126;SHT31;59999;51.676;22.650;2023-10-08T12:53:51;11.64;44.35
72126;SHT31;59999;51.676;22.650;2023-10-08T12:56:26;11.52;43.49
72126;SHT31;59999;51.676;22.650;2023-10-08T12:59:02;11.57;43.65
72126;SHT31;59999;51.676;22.650;2023-10-08T13:01:36;11.77;44.50
72126;SHT31;59999;51.676;22.650;2023-10-08T13:04:06;11.97;42.95
72126;SHT31;59999;51.676;22.650;2023-10-08T13:06:41;11.73;41.41
72126;SHT31;59999;51.676;22.650;2023-10-08T13:09:11;11.62;40.93
72126;SHT31;59999;51.676;22.650;2023-10-08T13:11:39;11.57;40.06
72126;SHT31;59999;51.676;22.650;2023-10-08T13:14:05;11.46;40.98
72126;SHT31;59999;51.676;22.650;2023-10-08T13:16:31;11.47;42.12
72126;SHT31;59999;51.676;22.650;2023-10-08T13:18:58;11.33;42.49
72126;SHT31;59999;51.676;22.650;2023-10-08T13:21:25;11.11;41.89
72126;SHT31;59999;51.676;22.650;2023-10-08T13:23:52;10.96;43.87
72126;SHT31;59999;51.676;22.650;2023-10-08T13:26:18;10.85;43.41
72126;SHT31;59999;51.676;22.650;2023-10-08T13:28:44;10.96;42.98
72126;SHT31;59999;51.676;22.650;2023-10-08T13:31:12;11.08;42.81
72126;SHT31;59999;51.676;22.650;2023-10-08T13:33:39;11.20;42.60
72126;SHT31;59999;51.676;22.650;2023-10-08T13:36:06;11.33;42.04
72126;SHT31;59999;51.676;22.650;2023-10-08T13:38:36;11.49;42.25
72126;SHT31;59999;51.676;22.650;2023-10-08T13:41:04;11.62;40.77
72126;SHT31;59999;51.676;22.650;2023-10-08T13:43:35;11.67;40.40
72126;SHT31;59999;51.676;22.650;2023-10-08T13:46:02;11.70;41.38
72126;SHT31;59999;51.676;22.650;2023-10-08T13:48:36;11.67;41.70
72126;SHT31;59999;51.676;22.650;2023-10-08T13:51:03;11.67;41.65
72126;SHT31;59999;51.676;22.650;2023-10-08T13:53:33;11.69;42.62
72126;SHT31;59999;51.676;22.650;2023-10-08T15:24:36;10.32;41.93
72126;SHT31;59999;51.676;22.650;2023-10-08T15:27:02;10.20;42.58
72126;SHT31;59999;51.676;22.650;2023-10-08T15:29:29;10.03;43.34
72126;SHT31;59999;51.676;22.650;2023-10-08T15:31:55;9.88;43.45
72126;SHT31;59999;51.676;22.650;2023-10-08T15:34:23;9.72;43.58
72126;SHT31;59999;51.676;22.650;2023-10-08T15:36:50;9.65;44.10
72126;SHT31;59999;51.676;22.650;2023-10-08T15:39:15;9.51;44.48
72126;SHT31;59999;51.676;22.650;2023-10-08T15:41:50;9.45;44.26
72126;SHT31;59999;51.676;22.650;2023-10-08T15:44:17;9.44;43.21
72126;SHT31;59999;51.676;22.650;2023-10-08T15:46:44;9.40;43.98
72126;SHT31;59999;51.676;22.650;2023-10-08T15:49:10;9.31;44.29
72126;SHT31;59999;51.676;22.650;2023-10-08T15:51:36;9.23;45.17
72126;SHT31;59999;51.676;22.650;2023-10-08T15:54:03;9.14;45.67
72126;SHT31;59999;51.676;22.650;2023-10-08T15:56:29;9.06;45.18
72126;SHT31;59999;51.676;22.650;2023-10-08T15:58:55;9.00;45.72
72126;SHT31;59999;51.676;22.650;2023-10-08T16:01:24;8.92;46.67
72126;SHT31;59999;51.676;22.650;2023-10-08T16:03:53;8.84;47.42
72126;SHT31;59999;51.676;22.650;2023-10-08T16:06:19;8.80;46.72
72126;SHT31;59999;51.676;22.650;2023-10-08T16:08:46;8.77;46.04
72126;SHT31;59999;51.676;22.650;2023-10-08T16:11:13;8.83;46.17
72126;SHT31;59999;51.676;22.650;2023-10-08T16:13:39;8.80;46.26
72126;SHT31;59999;51.676;22.650;2023-10-08T16:16:07;8.76;46.70
72126;SHT31;59999;51.676;22.650;2023-10-08T16:18:36;8.71;46.30
72126;SHT31;59999;51.676;22.650;2023-10-08T16:21:04;8.68;46.72
72126;SHT31;59999;51.676;22.650;2023-10-08T16:23:35;8.63;46.83
72126;SHT31;59999;51.676;22.650;2023-10-08T16:26:02;8.58;46.98
72126;SHT31;59999;51.676;22.650;2023-10-08T16:28:29;8.55;46.67
72126;SHT31;59999;51.676;22.650;2023-10-08T16:30:56;8.55;47.05
72126;SHT31;59999;51.676;22.650;2023-10-08T16:33:24;8.52;46.93
72126;SHT31;59999;51.676;22.650;2023-10-08T16:35:50;8.49;46.87
72126;SHT31;59999;51.676;22.650;2023-10-08T16:38:19;8.46;46.96
72126;SHT31;59999;51.676;22.650;2023-10-08T16:40:45;8.44;47.20
72126;SHT31;59999;51.676;22.650;2023-10-08T16:43:11;8.40;47.33
72126;SHT31;59999;51.676;22.650;2023-10-08T16:45:44;8.37;47.45
72126;SHT31;59999;51.676;22.650;2023-10-08T16:48:12;8.35;47.26
72126;SHT31;59999;51.676;22.650;2023-10-08T16:50:40;8.31;47.87
72126;SHT31;59999;51.676;22.650;2023-10-08T16:53:06;8.28;47.89
72126;SHT31;59999;51.676;22.650;2023-10-08T16:55:32;8.18;48.15
72126;SHT31;59999;51.676;22.650;2023-10-08T16:57:58;8.15;48.20
72126;SHT31;59999;51.676;22.650;2023-10-08T17:00:26;8.10;48.77
72126;SHT31;59999;51.676;22.650;2023-10-08T17:02:56;8.04;48.74
72126;SHT31;59999;51.676;22.650;2023-10-08T17:05:22;8.03;49.14
72126;SHT31;59999;51.676;22.650;2023-10-08T17:07:48;7.98;48.69
72126;SHT31;59999;51.676;22.650;2023-10-08T17:10:13;7.94;49.36
72126;SHT31;59999;51.676;22.650;2023-10-08T17:12:39;7.94;49.37
72126;SHT31;59999;51.676;22.650;2023-10-08T17:15:06;7.90;49.15
72126;SHT31;59999;51.676;22.650;2023-10-08T17:17:36;7.87;49.85
72126;SHT31;59999;51.676;22.650;2023-10-08T17:20:02;7.82;50.16
72126;SHT31;59999;51.676;22.650;2023-10-08T17:22:29;7.79;50.36
72126;SHT31;59999;51.676;22.650;2023-10-08T17:24:55;7.72;50.62